createdAt,value
2018-12-16T00:01:42.469Z,42.10
2018-12-16T00:04:10.260Z,42.10
2018-12-16T00:06:37.796Z,42.20
2018-12-16T00:09:06.186Z,42.20
2018-12-16T00:11:34.012Z,42.30
2018-12-16T00:16:31.767Z,42.20
2018-12-16T00:18:59.388Z,42.20
2018-12-16T00:33:45.122Z,42.20
2018-12-16T00:36:12.912Z,42.20
2018-12-16T00:38:40.539Z,42.20
2018-12-16T00:41:08.108Z,42.20
2018-12-16T00:43:36.279Z,42.10
2018-12-16T00:46:03.987Z,42.10
2018-12-16T00:48:31.496Z,42.20
2018-12-16T00:50:59.440Z,42.10
2018-12-16T00:53:28.112Z,42.20
2018-12-16T00:58:23.563Z,42.30
2018-12-16T01:00:51.261Z,42.40
2018-12-16T01:03:21.612Z,42.40
2018-12-16T01:05:49.726Z,42.50
2018-12-16T01:08:18.066Z,42.50
2018-12-16T01:10:45.754Z,42.50
2018-12-16T01:13:13.330Z,42.50
2018-12-16T01:15:41.459Z,42.50
2018-12-16T01:18:09.006Z,42.50
2018-12-16T01:20:36.597Z,42.40
2018-12-16T01:23:04.212Z,42.50
2018-12-16T01:25:31.757Z,42.40
2018-12-16T01:30:26.892Z,42.30
2018-12-16T01:32:54.477Z,42.30
2018-12-16T01:35:21.972Z,42.30
2018-12-16T01:37:49.573Z,42.30
2018-12-16T01:40:17.101Z,42.20
2018-12-16T01:42:44.657Z,42.10
2018-12-16T01:52:34.477Z,42.00
2018-12-16T01:57:29.560Z,42.10
2018-12-16T01:59:57.060Z,42.20
2018-12-16T02:02:24.579Z,42.30
2018-12-16T02:04:52.066Z,42.40
2018-12-16T02:07:19.633Z,42.40
2018-12-16T02:09:47.228Z,42.50
2018-12-16T02:12:14.786Z,42.40
2018-12-16T02:14:42.285Z,42.40
2018-12-16T02:17:09.793Z,42.30
2018-12-16T02:19:37.364Z,42.20
2018-12-16T02:24:32.264Z,42.20
2018-12-16T02:26:59.803Z,42.10
2018-12-16T02:31:54.736Z,42.10
2018-12-16T02:34:22.263Z,42.20
2018-12-16T02:36:49.758Z,42.30
2018-12-16T02:39:17.218Z,42.30
2018-12-16T02:44:12.276Z,42.20
2018-12-16T02:46:39.805Z,42.20
2018-12-16T02:49:07.406Z,42.20
2018-12-16T02:51:34.870Z,42.30
2018-12-16T02:54:02.345Z,42.30
2018-12-16T02:56:29.808Z,42.30
2018-12-16T02:58:57.296Z,42.20
2018-12-16T03:01:24.832Z,42.10
2018-12-16T03:03:52.556Z,42.00
2018-12-16T03:06:20.682Z,41.90
2018-12-16T03:08:48.283Z,42.00
2018-12-16T03:11:15.745Z,42.20
2018-12-16T03:13:43.252Z,42.10
2018-12-16T03:16:10.868Z,42.20
2018-12-16T03:26:00.663Z,42.30
2018-12-16T03:28:28.204Z,42.30
2018-12-16T03:30:55.869Z,42.20
2018-12-16T03:33:23.720Z,42.30
2018-12-16T03:35:51.329Z,42.20
2018-12-16T03:38:18.841Z,42.20
2018-12-16T03:43:13.873Z,42.20
2018-12-16T03:45:41.428Z,42.10
2018-12-16T03:48:08.945Z,42.00
2018-12-16T03:55:31.589Z,41.90
2018-12-16T03:57:59.065Z,41.60
2018-12-16T04:02:54.093Z,41.70
2018-12-16T04:05:21.625Z,41.60
2018-12-16T04:07:49.141Z,41.60
2018-12-16T04:10:17.714Z,41.50
2018-12-16T04:15:12.588Z,41.50
2018-12-16T04:17:40.149Z,41.60
2018-12-16T04:25:02.940Z,41.60
2018-12-16T04:29:57.899Z,41.70
2018-12-16T04:32:25.373Z,41.80
2018-12-16T04:34:52.907Z,41.80
2018-12-16T04:37:20.648Z,41.80
2018-12-16T04:39:48.266Z,41.80
2018-12-16T04:44:43.293Z,41.90
2018-12-16T04:47:10.874Z,41.90
2018-12-16T04:54:33.459Z,41.80
2018-12-16T04:57:01.915Z,41.60
2018-12-16T04:59:29.469Z,41.50
2018-12-16T05:04:24.498Z,41.50
2018-12-16T05:06:52.059Z,41.40
2018-12-16T05:09:19.601Z,41.40
2018-12-16T05:11:47.302Z,41.30
2018-12-16T05:14:14.862Z,41.20
2018-12-16T05:16:42.419Z,41.30
2018-12-16T05:19:09.972Z,41.20
2018-12-16T05:21:37.409Z,41.20
2018-12-16T05:24:04.983Z,41.00
2018-12-16T05:26:32.413Z,41.00
2018-12-16T05:33:54.723Z,40.90
2018-12-16T05:36:22.223Z,40.90
2018-12-16T05:38:49.799Z,40.90
2018-12-16T05:41:17.338Z,40.90
2018-12-16T05:43:44.836Z,40.90
2018-12-16T05:46:12.313Z,40.90
2018-12-16T05:51:07.304Z,40.90
2018-12-16T05:53:34.788Z,41.00
2018-12-16T05:56:02.261Z,41.00
2018-12-16T05:58:29.756Z,41.00
2018-12-16T06:03:24.838Z,41.00
2018-12-16T06:08:19.890Z,41.00
2018-12-16T06:10:47.373Z,41.00
2018-12-16T06:15:42.346Z,41.10
2018-12-16T06:18:09.849Z,41.10
2018-12-16T06:20:37.354Z,41.20
2018-12-16T06:23:04.791Z,41.20
2018-12-16T06:27:59.736Z,41.40
2018-12-16T06:30:30.232Z,41.30
2018-12-16T06:32:57.723Z,41.30
2018-12-16T06:35:25.253Z,41.30
2018-12-16T06:37:52.733Z,41.30
2018-12-16T06:40:20.247Z,41.40
2018-12-16T06:42:47.757Z,41.50
2018-12-16T06:45:15.262Z,41.50
2018-12-16T06:47:42.743Z,41.40
2018-12-16T06:50:10.263Z,41.40
2018-12-16T06:52:37.769Z,42.40
2018-12-16T06:57:33.057Z,41.20
2018-12-16T07:00:00.587Z,41.20
2018-12-16T07:04:55.452Z,41.30
2018-12-16T07:12:17.806Z,41.30
2018-12-16T07:14:45.467Z,41.30
2018-12-16T07:17:13.130Z,41.40
2018-12-16T07:19:40.677Z,41.40
2018-12-16T07:22:08.217Z,41.40
2018-12-16T07:24:35.717Z,41.40
2018-12-16T07:29:30.750Z,41.50
2018-12-16T07:31:58.314Z,41.50
2018-12-16T07:36:53.308Z,41.70
2018-12-16T07:41:48.687Z,41.70
2018-12-16T07:44:16.310Z,41.80
2018-12-16T07:46:43.798Z,41.70
2018-12-16T07:49:11.365Z,41.80
2018-12-16T07:51:38.941Z,41.80
2018-12-16T07:54:06.480Z,41.80
2018-12-16T07:56:34.001Z,41.90
2018-12-16T07:59:01.475Z,41.90
2018-12-16T08:01:29.113Z,41.80
2018-12-16T08:03:56.931Z,41.80
2018-12-16T08:06:24.442Z,41.80
2018-12-16T08:08:52.076Z,41.70
2018-12-16T08:11:19.580Z,41.70
2018-12-16T08:13:47.120Z,41.80
2018-12-16T08:16:14.668Z,41.90
2018-12-16T08:18:42.228Z,41.80
2018-12-16T08:21:09.753Z,41.90
2018-12-16T08:23:37.529Z,41.80
2018-12-16T08:26:05.118Z,41.80
2018-12-16T08:31:01.021Z,41.70
2018-12-16T08:33:35.292Z,41.50
2018-12-16T08:36:02.866Z,41.50
2018-12-16T08:41:04.546Z,41.60
2018-12-16T08:43:32.135Z,41.80
2018-12-16T08:48:27.339Z,42.10
2018-12-16T08:50:54.952Z,42.30
2018-12-16T08:53:22.656Z,42.50
2018-12-16T08:55:55.144Z,42.50
2018-12-16T08:58:22.785Z,42.70
2018-12-16T09:03:17.931Z,42.80
2018-12-16T09:05:46.018Z,43.00
2018-12-16T09:08:13.942Z,43.20
2018-12-16T09:10:41.572Z,43.20
2018-12-16T09:13:09.160Z,43.30
2018-12-16T09:15:36.978Z,43.30
2018-12-16T09:18:06.670Z,43.30
2018-12-16T09:20:54.967Z,43.30
2018-12-16T09:23:22.526Z,43.40
2018-12-16T09:28:17.644Z,43.60
2018-12-16T09:30:45.394Z,43.70
2018-12-16T09:33:17.597Z,43.90
2018-12-16T09:35:46.321Z,43.90
2018-12-16T09:38:18.941Z,44.10
2018-12-16T09:40:53.304Z,44.10
2018-12-16T09:43:20.925Z,44.10
2018-12-16T09:45:49.560Z,44.10
2018-12-16T09:48:17.310Z,44.20
2018-12-16T09:50:44.843Z,44.40
2018-12-16T09:53:12.363Z,44.50
2018-12-16T09:55:40.117Z,44.50
2018-12-16T09:58:07.701Z,44.40
2018-12-16T10:00:35.279Z,44.50
2018-12-16T10:03:04.940Z,44.60
2018-12-16T10:05:35.635Z,44.60
2018-12-16T10:10:31.062Z,44.80
2018-12-16T10:12:59.021Z,44.90
2018-12-16T10:17:55.320Z,44.80
2018-12-16T10:38:39.629Z,44.80
2018-12-16T10:41:07.138Z,44.80
2018-12-16T10:43:34.662Z,44.90
2018-12-16T10:48:29.750Z,45.00
2018-12-16T10:50:57.388Z,45.10
2018-12-16T10:53:24.897Z,45.10
2018-12-16T10:55:52.509Z,45.00
2018-12-16T11:00:53.104Z,44.90
2018-12-16T11:03:20.675Z,44.80
2018-12-16T11:05:48.279Z,44.90
2018-12-16T11:08:15.783Z,44.90
2018-12-16T11:10:43.346Z,45.00
2018-12-16T11:13:11.034Z,45.10
2018-12-16T11:15:39.700Z,45.10
2018-12-16T11:18:07.358Z,45.10
2018-12-16T11:20:34.867Z,45.10
2018-12-16T11:23:02.508Z,45.20
2018-12-16T11:25:32.756Z,45.30
2018-12-16T11:28:00.357Z,45.30
2018-12-16T11:30:27.968Z,45.30
2018-12-16T11:32:55.821Z,45.40
2018-12-16T11:37:51.039Z,45.40
2018-12-16T11:45:46.323Z,45.40
2018-12-16T11:48:14.111Z,45.30
2018-12-16T11:50:41.759Z,45.50
2018-12-16T11:53:09.377Z,45.60
2018-12-16T11:55:37.020Z,45.70
2018-12-16T11:58:04.661Z,45.70
2018-12-16T12:03:00.663Z,45.70
2018-12-16T12:15:42.187Z,45.60
2018-12-16T12:23:04.775Z,45.90
2018-12-16T12:30:27.524Z,46.10
2018-12-16T12:32:55.203Z,46.10
2018-12-16T12:35:22.883Z,46.00
2018-12-16T12:37:50.443Z,46.00
2018-12-16T12:40:18.069Z,45.90
2018-12-16T12:42:45.638Z,45.90
2018-12-16T12:45:13.273Z,45.90
2018-12-16T12:52:36.007Z,46.00
2018-12-16T12:57:31.395Z,46.10
2018-12-16T12:59:58.938Z,46.20
2018-12-16T13:04:53.940Z,46.20
2018-12-16T13:07:27.625Z,46.20
2018-12-16T13:12:39.509Z,46.10
2018-12-16T13:15:07.369Z,46.10
2018-12-16T13:17:35.001Z,46.10
2018-12-16T13:20:02.877Z,46.10
2018-12-16T13:22:30.511Z,46.20
2018-12-16T13:33:05.949Z,46.50
2018-12-16T13:38:01.208Z,46.80
2018-12-16T13:40:28.914Z,46.90
2018-12-16T13:42:57.147Z,46.90
2018-12-16T13:45:24.645Z,46.90
2018-12-16T13:47:52.203Z,47.00
2018-12-16T13:52:47.301Z,46.80
2018-12-16T13:57:44.483Z,46.60
2018-12-16T14:00:12.619Z,46.60
2018-12-16T14:02:40.409Z,46.50
2018-12-16T14:05:26.386Z,46.60
2018-12-16T14:08:03.844Z,46.60
2018-12-16T14:10:31.398Z,46.60
2018-12-16T14:23:07.488Z,46.80
2018-12-16T14:25:35.228Z,46.90
2018-12-16T14:28:02.788Z,47.00
2018-12-16T14:35:25.842Z,47.00
2018-12-16T14:37:54.142Z,47.00
2018-12-16T14:40:21.788Z,47.10
2018-12-16T14:42:49.440Z,47.10
2018-12-16T14:45:17.024Z,47.10
2018-12-16T14:47:44.753Z,47.20
2018-12-16T15:05:22.782Z,47.80
2018-12-16T15:07:50.234Z,47.60
2018-12-16T15:10:17.644Z,47.70
2018-12-16T15:12:45.115Z,47.90
2018-12-16T15:15:12.691Z,48.10
2018-12-16T15:17:42.854Z,48.20
2018-12-16T15:20:09.828Z,48.10
2018-12-16T15:22:37.285Z,48.30
2018-12-16T15:25:05.405Z,48.90
2018-12-16T15:27:32.833Z,48.90
2018-12-16T15:30:00.263Z,49.00
2018-12-16T15:32:27.715Z,49.10
2018-12-16T15:34:55.218Z,49.20
2018-12-16T15:37:22.846Z,48.50
2018-12-16T15:39:50.281Z,49.80
2018-12-16T15:42:17.720Z,48.40
2018-12-16T15:44:45.131Z,48.50
2018-12-16T15:47:12.545Z,48.40
2018-12-16T15:49:39.949Z,49.00
2018-12-16T15:52:07.393Z,48.50
2018-12-16T15:54:34.833Z,49.20
2018-12-16T15:57:02.283Z,48.60
2018-12-16T15:59:29.718Z,48.70
2018-12-16T16:01:57.200Z,48.70
2018-12-16T16:04:25.142Z,49.50
2018-12-16T16:06:52.565Z,49.60
2018-12-16T16:09:19.996Z,49.00
2018-12-16T16:11:47.394Z,49.80
2018-12-16T16:14:14.858Z,49.10
2018-12-16T16:16:42.332Z,49.10
2018-12-16T16:19:09.862Z,49.20
2018-12-16T16:21:37.315Z,49.30
2018-12-16T16:24:04.765Z,49.30
2018-12-16T16:26:32.214Z,49.40
2018-12-16T16:28:59.680Z,50.00
2018-12-16T16:31:27.114Z,49.40
2018-12-16T16:33:54.771Z,49.50
2018-12-16T16:36:22.223Z,50.10
2018-12-16T16:38:49.636Z,50.20
2018-12-16T16:41:17.072Z,49.40
2018-12-16T16:43:44.491Z,50.00
2018-12-16T16:46:11.940Z,50.00
2018-12-16T16:48:39.458Z,50.00
2018-12-16T16:51:07.044Z,50.00
2018-12-16T16:53:34.522Z,49.20
2018-12-16T16:56:02.016Z,49.90
2018-12-16T16:58:29.478Z,49.80
2018-12-16T17:00:57.318Z,49.70
2018-12-16T17:03:24.870Z,49.80
2018-12-16T17:05:52.284Z,49.80
2018-12-16T17:08:19.866Z,49.20
2018-12-16T17:10:47.327Z,49.20
2018-12-16T17:13:14.734Z,49.90
2018-12-16T17:15:42.263Z,49.30
2018-12-16T17:18:09.720Z,49.90
2018-12-16T17:20:37.499Z,49.20
2018-12-16T17:23:04.951Z,49.20
2018-12-16T17:25:32.384Z,49.30
2018-12-16T17:27:59.836Z,49.90
2018-12-16T17:30:27.303Z,49.50
2018-12-16T17:32:54.758Z,49.60
2018-12-16T17:35:22.297Z,49.70
2018-12-16T17:37:49.808Z,50.40
2018-12-16T17:40:17.285Z,49.80
2018-12-16T17:42:45.408Z,50.40
2018-12-16T17:45:13.037Z,49.80
2018-12-16T17:47:40.506Z,50.30
2018-12-16T17:50:08.666Z,50.30
2018-12-16T17:52:36.106Z,49.50
2018-12-16T17:55:04.705Z,49.40
2018-12-16T17:57:32.176Z,49.30
2018-12-16T18:00:00.504Z,49.90
2018-12-16T18:02:28.193Z,49.20
2018-12-16T18:04:55.715Z,49.20
2018-12-16T18:07:23.157Z,49.80
2018-12-16T18:09:50.555Z,49.80
2018-12-16T18:12:18.019Z,49.70
2018-12-16T18:14:45.483Z,49.30
2018-12-16T18:17:12.958Z,49.50
2018-12-16T18:19:40.418Z,49.60
2018-12-16T18:22:13.877Z,49.40
2018-12-16T18:24:37.384Z,49.30
2018-12-16T18:27:04.876Z,49.90
2018-12-16T18:29:32.287Z,49.90
2018-12-16T18:31:59.758Z,50.10
2018-12-16T18:36:54.575Z,49.90
2018-12-16T18:39:21.996Z,49.80
2018-12-16T18:41:49.709Z,49.90
2018-12-16T18:44:17.128Z,49.80
2018-12-16T18:46:44.784Z,50.40
2018-12-16T18:49:12.240Z,50.00
2018-12-16T18:51:39.691Z,50.80
2018-12-16T18:54:07.161Z,49.90
2018-12-16T18:56:34.637Z,49.80
2018-12-16T18:59:02.681Z,49.80
2018-12-16T19:01:30.142Z,49.70
2018-12-16T19:03:57.621Z,49.80
2018-12-16T19:06:25.077Z,49.80
2018-12-16T19:08:52.485Z,49.90
2018-12-16T19:11:19.981Z,50.10
2018-12-16T19:13:47.450Z,49.80
2018-12-16T19:16:14.958Z,50.50
2018-12-16T19:18:42.572Z,50.50
2018-12-16T19:21:10.260Z,49.90
2018-12-16T19:23:37.864Z,50.00
2018-12-16T19:26:05.326Z,50.50
2018-12-16T19:31:00.272Z,50.10
2018-12-16T19:33:27.853Z,50.00
2018-12-16T19:35:55.312Z,50.00
2018-12-16T19:38:22.933Z,49.90
2018-12-16T19:40:50.489Z,49.40
2018-12-16T19:43:17.917Z,49.20
2018-12-16T19:45:45.335Z,49.10
2018-12-16T19:48:12.834Z,49.10
2018-12-16T19:50:40.280Z,49.00
2018-12-16T19:53:07.835Z,49.00
2018-12-16T19:55:35.506Z,49.00
2018-12-16T19:58:04.890Z,49.60
2018-12-16T20:00:32.691Z,49.10
2018-12-16T20:03:00.463Z,49.30
2018-12-16T20:05:27.984Z,49.30
2018-12-16T20:07:55.533Z,49.40
2018-12-16T20:10:23.073Z,49.60
2018-12-16T20:12:50.540Z,50.00
2018-12-16T20:15:18.021Z,50.00
2018-12-16T20:17:45.548Z,50.30
2018-12-16T20:20:13.216Z,50.40
2018-12-16T20:22:40.701Z,50.50
2018-12-16T20:25:08.259Z,50.50
2018-12-16T20:27:36.020Z,50.60
2018-12-16T20:30:04.612Z,51.10
2018-12-16T20:32:32.069Z,50.30
2018-12-16T20:34:59.930Z,50.30
2018-12-16T20:37:27.417Z,50.40
2018-12-16T20:39:54.900Z,50.50
2018-12-16T20:56:14.559Z,51.00
2018-12-16T20:58:48.004Z,51.10
2018-12-16T21:06:15.413Z,51.30
2018-12-16T21:08:43.206Z,51.30
2018-12-16T21:11:16.554Z,51.30
2018-12-16T21:13:49.937Z,51.30
2018-12-16T21:19:00.952Z,51.40
2018-12-16T21:21:30.042Z,51.30
2018-12-16T21:26:54.674Z,51.40
2018-12-16T21:32:08.712Z,51.30
2018-12-16T21:39:43.587Z,51.30
2018-12-16T21:42:11.392Z,51.40
2018-12-16T21:44:39.026Z,51.30
2018-12-16T22:02:28.293Z,50.80
2018-12-16T22:07:57.037Z,50.70
2018-12-16T22:18:24.340Z,50.20
2018-12-16T22:34:23.197Z,50.00
2018-12-16T22:36:50.889Z,50.10
2018-12-16T22:39:18.457Z,50.60
2018-12-16T22:55:05.302Z,51.10
2018-12-16T23:05:39.211Z,51.40
2018-12-16T23:30:00.789Z,51.00
2018-12-16T23:48:34.008Z,50.30
